Anglian Lady — VOLP — position and weather

sailwx.info

Track history (hours):
 
Tides and Currents Weather Stations Pressure Air Temp Water Temp Dewpoint Dewpoint Depression Visibility Wind Speed Wind Dir Waves Ship Positions

Anglian Lady

Last reported at 2017-Nov-16 14:17 UTC. Time now 2017-Nov-20 07:52 UTC.
Position N 45°51' W 084°35'.

Length 32 m.

Type: Tug. MMSI: 316002238.

Date/timePositionNaut miles runAvg speedWind from/ knotsBaromVisibWave heightAir tempDewpointWater temp
2017-Nov-16 14:17N 45°51' W 084°35'5 8.4
2017-Nov-16 13:44N 45°49' W 084°41'2 8.5
2017-Nov-16 13:30N 45°49' W 084°44'4 8.2
2017-Nov-16 13:00N 45°49' W 084°50'4 8.9
2017-Nov-16 12:30N 45°50' W 084°56'4 8.7
2017-Nov-16 12:01N 45°51' W 085°02'4 8.5
2017-Nov-16 11:31N 45°51' W 085°08'4 8.6
2017-Nov-16 11:00N 45°52' W 085°14'  
2017-Nov-12 14:34N 45°18' W 085°41'1 6.8
2017-Nov-12 14:25N 45°19' W 085°40'3 6.7
2017-Nov-12 14:00N 45°21' W 085°38'3 6.7
2017-Nov-12 13:30N 45°24' W 085°35'4 6.7
2017-Nov-12 12:57N 45°27' W 085°32'3 7.2
2017-Nov-12 12:30N 45°29' W 085°29'4 7.1
2017-Nov-12 12:00N 45°32' W 085°26'4 7.2
2017-Nov-12 11:30N 45°35' W 085°23'4 7.2
2017-Nov-12 11:00N 45°38' W 085°20'4 7.2
2017-Nov-12 10:30N 45°41' W 085°17'4 7.1
2017-Nov-12 10:00N 45°43' W 085°13'4 6.8
2017-Nov-12 09:27N 45°46' W 085°09'3 6.7
2017-Nov-12 08:59N 45°49' W 085°08'4 6.1
2017-Nov-12 08:24N 45°50' W 085°03'3 6.9
2017-Nov-12 08:00N 45°50' W 084°60'3 6.8
2017-Nov-12 07:30N 45°50' W 084°55'  
Track history (hours):
 
Tides and Currents Weather Stations Pressure Air Temp Water Temp Dewpoint Dewpoint Depression Visibility Wind Speed Wind Dir Waves Ship Positions

Anglian Lady

Last reported at 2017-Nov-16 14:17 UTC. Time now 2017-Nov-20 07:52 UTC.
Position N 45°51' W 084°35'.

Length 32 m.

Type: Tug. MMSI: 316002238.

Date/timePositionNaut miles runAvg speedWind from/ knotsBaromVisibWave heightAir tempDewpointWater temp
2017-Nov-16 14:17N 45°51' W 084°35'5 8.4
2017-Nov-16 13:44N 45°49' W 084°41'2 8.5
2017-Nov-16 13:30N 45°49' W 084°44'4 8.2
2017-Nov-16 13:00N 45°49' W 084°50'4 8.9
2017-Nov-16 12:30N 45°50' W 084°56'4 8.7
2017-Nov-16 12:01N 45°51' W 085°02'4 8.5
2017-Nov-16 11:31N 45°51' W 085°08'4 8.6
2017-Nov-16 11:00N 45°52' W 085°14'  
2017-Nov-12 14:34N 45°18' W 085°41'1 6.8
2017-Nov-12 14:25N 45°19' W 085°40'3 6.7
2017-Nov-12 14:00N 45°21' W 085°38'3 6.7
2017-Nov-12 13:30N 45°24' W 085°35'4 6.7
2017-Nov-12 12:57N 45°27' W 085°32'3 7.2
2017-Nov-12 12:30N 45°29' W 085°29'4 7.1
2017-Nov-12 12:00N 45°32' W 085°26'4 7.2
2017-Nov-12 11:30N 45°35' W 085°23'4 7.2
2017-Nov-12 11:00N 45°38' W 085°20'4 7.2
2017-Nov-12 10:30N 45°41' W 085°17'4 7.1
2017-Nov-12 10:00N 45°43' W 085°13'4 6.8
2017-Nov-12 09:27N 45°46' W 085°09'3 6.7
2017-Nov-12 08:59N 45°49' W 085°08'4 6.1
2017-Nov-12 08:24N 45°50' W 085°03'3 6.9
2017-Nov-12 08:00N 45°50' W 084°60'3 6.8
2017-Nov-12 07:30N 45°50' W 084°55'  

Dump ship's entire track history